sensor_id;sensor_type;location;lat;lon;timestamp;pressure;altitude;pressure_sealevel;temperature
40199;BMP280;25906;43.536;26.068;2023-07-20T00:00:01;98543.00;;;25.19
40199;BMP280;25906;43.536;26.068;2023-07-20T00:02:50;98545.47;;;25.30
40199;BMP280;25906;43.536;26.068;2023-07-20T00:05:35;98534.63;;;25.30
40199;BMP280;25906;43.536;26.068;2023-07-20T00:08:20;98540.41;;;25.34
40199;BMP280;25906;43.536;26.068;2023-07-20T00:11:05;98554.97;;;25.23
40199;BMP280;25906;43.536;26.068;2023-07-20T00:13:51;98561.66;;;25.22
40199;BMP280;25906;43.536;26.068;2023-07-20T00:16:36;98552.59;;;25.20
40199;BMP280;25906;43.536;26.068;2023-07-20T00:19:22;98555.97;;;25.12
40199;BMP280;25906;43.536;26.068;2023-07-20T00:22:07;98548.63;;;25.21
40199;BMP280;25906;43.536;26.068;2023-07-20T00:24:53;98532.19;;;25.19
40199;BMP280;25906;43.536;26.068;2023-07-20T00:27:38;98536.47;;;25.14
40199;BMP280;25906;43.536;26.068;2023-07-20T00:30:23;98509.47;;;25.01
40199;BMP280;25906;43.536;26.068;2023-07-20T00:33:10;98510.78;;;25.07
40199;BMP280;25906;43.536;26.068;2023-07-20T00:35:56;98506.66;;;25.06
40199;BMP280;25906;43.536;26.068;2023-07-20T00:38:42;98503.78;;;24.91
40199;BMP280;25906;43.536;26.068;2023-07-20T00:41:27;98494.44;;;24.92
40199;BMP280;25906;43.536;26.068;2023-07-20T00:44:14;98480.56;;;24.96
40199;BMP280;25906;43.536;26.068;2023-07-20T00:46:59;98486.38;;;25.00
40199;BMP280;25906;43.536;26.068;2023-07-20T00:49:45;98480.75;;;24.98
40199;BMP280;25906;43.536;26.068;2023-07-20T00:52:31;98467.34;;;24.92
40199;BMP280;25906;43.536;26.068;2023-07-20T00:55:16;98473.19;;;24.96
40199;BMP280;25906;43.536;26.068;2023-07-20T00:58:02;98465.41;;;25.00
40199;BMP280;25906;43.536;26.068;2023-07-20T01:00:47;98470.81;;;25.00
40199;BMP280;25906;43.536;26.068;2023-07-20T01:03:32;98469.94;;;24.98
40199;BMP280;25906;43.536;26.068;2023-07-20T01:09:19;98465.31;;;24.85
40199;BMP280;25906;43.536;26.068;2023-07-20T01:12:08;98467.69;;;24.68
40199;BMP280;25906;43.536;26.068;2023-07-20T01:14:54;98466.97;;;24.68
40199;BMP280;25906;43.536;26.068;2023-07-20T01:17:40;98478.84;;;24.44
40199;BMP280;25906;43.536;26.068;2023-07-20T01:20:25;98448.47;;;24.17
40199;BMP280;25906;43.536;26.068;2023-07-20T01:23:17;98414.88;;;24.13
40199;BMP280;25906;43.536;26.068;2023-07-20T01:29:06;98396.53;;;23.98
40199;BMP280;25906;43.536;26.068;2023-07-20T01:31:52;98368.50;;;23.88
40199;BMP280;25906;43.536;26.068;2023-07-20T01:34:39;98261.75;;;23.81
40199;BMP280;25906;43.536;26.068;2023-07-20T01:37:25;98164.81;;;23.57
40199;BMP280;25906;43.536;26.068;2023-07-20T01:40:14;98176.94;;;22.76
40199;BMP280;25906;43.536;26.068;2023-07-20T01:43:00;98219.16;;;23.33
40199;BMP280;25906;43.536;26.068;2023-07-20T01:45:45;98249.09;;;23.22
40199;BMP280;25906;43.536;26.068;2023-07-20T01:48:31;98225.97;;;23.47
40199;BMP280;25906;43.536;26.068;2023-07-20T01:51:16;98246.06;;;23.59
40199;BMP280;25906;43.536;26.068;2023-07-20T01:54:03;98227.06;;;23.31
40199;BMP280;25906;43.536;26.068;2023-07-20T01:56:48;98205.53;;;23.05
40199;BMP280;25906;43.536;26.068;2023-07-20T01:59:33;98194.84;;;23.33
40199;BMP280;25906;43.536;26.068;2023-07-20T02:02:18;98186.97;;;23.56
40199;BMP280;25906;43.536;26.068;2023-07-20T02:05:05;98198.53;;;23.64
40199;BMP280;25906;43.536;26.068;2023-07-20T02:07:51;98202.56;;;23.70
40199;BMP280;25906;43.536;26.068;2023-07-20T02:10:36;98200.78;;;23.73
40199;BMP280;25906;43.536;26.068;2023-07-20T02:13:21;98200.72;;;23.65
40199;BMP280;25906;43.536;26.068;2023-07-20T02:16:06;98205.59;;;23.46
40199;BMP280;25906;43.536;26.068;2023-07-20T02:18:52;98212.03;;;23.64
40199;BMP280;25906;43.536;26.068;2023-07-20T02:21:37;98220.44;;;23.73
40199;BMP280;25906;43.536;26.068;2023-07-20T02:24:24;98229.88;;;23.59
40199;BMP280;25906;43.536;26.068;2023-07-20T02:27:10;98235.03;;;23.57
40199;BMP280;25906;43.536;26.068;2023-07-20T02:29:55;98228.84;;;23.49
40199;BMP280;25906;43.536;26.068;2023-07-20T02:32:40;98220.34;;;23.45
40199;BMP280;25906;43.536;26.068;2023-07-20T02:35:25;98231.75;;;23.17
40199;BMP280;25906;43.536;26.068;2023-07-20T02:38:11;98241.50;;;23.34
40199;BMP280;25906;43.536;26.068;2023-07-20T02:40:56;98255.41;;;23.25
40199;BMP280;25906;43.536;26.068;2023-07-20T02:43:41;98269.44;;;23.23
40199;BMP280;25906;43.536;26.068;2023-07-20T02:46:27;98281.03;;;23.44
40199;BMP280;25906;43.536;26.068;2023-07-20T02:49:15;98281.03;;;22.84
40199;BMP280;25906;43.536;26.068;2023-07-20T02:52:00;98279.38;;;22.68
40199;BMP280;25906;43.536;26.068;2023-07-20T02:54:46;98292.75;;;22.74
40199;BMP280;25906;43.536;26.068;2023-07-20T02:57:31;98267.81;;;22.55
40199;BMP280;25906;43.536;26.068;2023-07-20T03:00:16;98265.25;;;22.62
40199;BMP280;25906;43.536;26.068;2023-07-20T03:03:06;98294.38;;;22.64
40199;BMP280;25906;43.536;26.068;2023-07-20T03:05:54;98320.66;;;22.63
40199;BMP280;25906;43.536;26.068;2023-07-20T03:08:41;98326.31;;;22.46
40199;BMP280;25906;43.536;26.068;2023-07-20T03:11:26;98301.47;;;22.67
40199;BMP280;25906;43.536;26.068;2023-07-20T03:14:12;98301.03;;;22.63
40199;BMP280;25906;43.536;26.068;2023-07-20T03:16:57;98314.63;;;22.70
40199;BMP280;25906;43.536;26.068;2023-07-20T03:19:43;98316.41;;;22.68
40199;BMP280;25906;43.536;26.068;2023-07-20T03:22:28;98318.16;;;22.65
40199;BMP280;25906;43.536;26.068;2023-07-20T03:25:13;98321.59;;;22.66
40199;BMP280;25906;43.536;26.068;2023-07-20T03:27:59;98313.69;;;22.68
40199;BMP280;25906;43.536;26.068;2023-07-20T03:30:44;98322.94;;;22.72
40199;BMP280;25906;43.536;26.068;2023-07-20T03:33:30;98328.13;;;22.70
40199;BMP280;25906;43.536;26.068;2023-07-20T03:36:16;98314.72;;;22.65
40199;BMP280;25906;43.536;26.068;2023-07-20T03:39:01;98314.72;;;22.65
40199;BMP280;25906;43.536;26.068;2023-07-20T03:41:47;98319.00;;;22.73
40199;BMP280;25906;43.536;26.068;2023-07-20T03:44:33;98317.03;;;22.74
40199;BMP280;25906;43.536;26.068;2023-07-20T03:47:18;98318.47;;;22.62
40199;BMP280;25906;43.536;26.068;2023-07-20T03:50:03;98314.00;;;22.64
40199;BMP280;25906;43.536;26.068;2023-07-20T03:52:50;98328.84;;;22.71
40199;BMP280;25906;43.536;26.068;2023-07-20T03:55:35;98322.53;;;22.81
40199;BMP280;25906;43.536;26.068;2023-07-20T03:58:21;98310.25;;;22.54
40199;BMP280;25906;43.536;26.068;2023-07-20T04:01:06;98342.38;;;22.07
40199;BMP280;25906;43.536;26.068;2023-07-20T04:03:52;98338.91;;;21.56
40199;BMP280;25906;43.536;26.068;2023-07-20T04:06:37;98320.19;;;22.33
40199;BMP280;25906;43.536;26.068;2023-07-20T04:09:22;98324.84;;;22.45
40199;BMP280;25906;43.536;26.068;2023-07-20T04:12:08;98339.75;;;22.20
40199;BMP280;25906;43.536;26.068;2023-07-20T04:14:53;98330.56;;;22.10
40199;BMP280;25906;43.536;26.068;2023-07-20T04:17:38;98329.84;;;22.10
40199;BMP280;25906;43.536;26.068;2023-07-20T04:20:24;98324.16;;;22.13
40199;BMP280;25906;43.536;26.068;2023-07-20T04:23:09;98338.53;;;22.34
40199;BMP280;25906;43.536;26.068;2023-07-20T04:25:54;98336.31;;;22.52
40199;BMP280;25906;43.536;26.068;2023-07-20T04:28:40;98317.25;;;22.76
40199;BMP280;25906;43.536;26.068;2023-07-20T04:31:27;98315.06;;;22.87
40199;BMP280;25906;43.536;26.068;2023-07-20T04:34:12;98327.28;;;23.01
40199;BMP280;25906;43.536;26.068;2023-07-20T04:36:58;98319.50;;;23.24
40199;BMP280;25906;43.536;26.068;2023-07-20T04:39:43;98323.00;;;23.32
40199;BMP280;25906;43.536;26.068;2023-07-20T04:42:28;98302.34;;;23.89
40199;BMP280;25906;43.536;26.068;2023-07-20T04:45:13;98302.75;;;23.72
40199;BMP280;25906;43.536;26.068;2023-07-20T04:47:59;98305.44;;;23.72
40199;BMP280;25906;43.536;26.068;2023-07-20T04:50:44;98309.22;;;23.90
40199;BMP280;25906;43.536;26.068;2023-07-20T04:53:30;98316.34;;;23.80
40199;BMP280;25906;43.536;26.068;2023-07-20T04:56:16;98310.03;;;23.64
40199;BMP280;25906;43.536;26.068;2023-07-20T04:59:01;98330.16;;;23.56
40199;BMP280;25906;43.536;26.068;2023-07-20T05:01:46;98341.03;;;23.63
40199;BMP280;25906;43.536;26.068;2023-07-20T05:04:31;98331.50;;;23.62
40199;BMP280;25906;43.536;26.068;2023-07-20T05:07:17;98333.00;;;23.71
40199;BMP280;25906;43.536;26.068;2023-07-20T05:10:02;98347.13;;;23.64
40199;BMP280;25906;43.536;26.068;2023-07-20T05:12:47;98348.56;;;23.78
40199;BMP280;25906;43.536;26.068;2023-07-20T05:15:33;98355.91;;;23.91
40199;BMP280;25906;43.536;26.068;2023-07-20T05:18:19;98361.50;;;24.13
40199;BMP280;25906;43.536;26.068;2023-07-20T05:21:05;98363.84;;;24.30
40199;BMP280;25906;43.536;26.068;2023-07-20T05:23:51;98367.00;;;24.21
40199;BMP280;25906;43.536;26.068;2023-07-20T05:26:36;98369.41;;;23.91
40199;BMP280;25906;43.536;26.068;2023-07-20T05:29:23;98365.84;;;23.96
40199;BMP280;25906;43.536;26.068;2023-07-20T05:32:08;98368.69;;;24.52
40199;BMP280;25906;43.536;26.068;2023-07-20T05:35:04;98367.91;;;24.93
40199;BMP280;25906;43.536;26.068;2023-07-20T05:37:49;98364.28;;;24.62
40199;BMP280;25906;43.536;26.068;2023-07-20T05:40:40;98368.59;;;24.37
40199;BMP280;25906;43.536;26.068;2023-07-20T05:43:26;98372.09;;;24.24
40199;BMP280;25906;43.536;26.068;2023-07-20T05:46:11;98377.03;;;24.13
40199;BMP280;25906;43.536;26.068;2023-07-20T05:48:56;98378.69;;;24.16
40199;BMP280;25906;43.536;26.068;2023-07-20T05:51:42;98375.75;;;24.14
40199;BMP280;25906;43.536;26.068;2023-07-20T05:54:27;98387.56;;;24.03
40199;BMP280;25906;43.536;26.068;2023-07-20T05:57:13;98390.03;;;23.80
40199;BMP280;25906;43.536;26.068;2023-07-20T05:59:58;98381.56;;;23.97
40199;BMP280;25906;43.536;26.068;2023-07-20T06:02:43;98390.66;;;23.87
40199;BMP280;25906;43.536;26.068;2023-07-20T06:05:29;98380.81;;;23.97
40199;BMP280;25906;43.536;26.068;2023-07-20T06:08:15;98367.28;;;24.10
40199;BMP280;25906;43.536;26.068;2023-07-20T06:11:00;98354.03;;;24.19
40199;BMP280;25906;43.536;26.068;2023-07-20T06:13:45;98357.91;;;24.11
40199;BMP280;25906;43.536;26.068;2023-07-20T06:16:31;98362.16;;;24.06
40199;BMP280;25906;43.536;26.068;2023-07-20T06:19:16;98357.50;;;24.07
40199;BMP280;25906;43.536;26.068;2023-07-20T06:22:02;98367.00;;;24.21
40199;BMP280;25906;43.536;26.068;2023-07-20T06:24:47;98380.16;;;24.04
40199;BMP280;25906;43.536;26.068;2023-07-20T06:27:32;98388.25;;;24.58
40199;BMP280;25906;43.536;26.068;2023-07-20T06:30:18;98381.13;;;25.40
40199;BMP280;25906;43.536;26.068;2023-07-20T06:33:03;98385.59;;;25.80
40199;BMP280;25906;43.536;26.068;2023-07-20T06:35:48;98388.53;;;26.35
40199;BMP280;25906;43.536;26.068;2023-07-20T06:38:34;98382.72;;;26.46
40199;BMP280;25906;43.536;26.068;2023-07-20T06:41:19;98379.81;;;26.60
40199;BMP280;25906;43.536;26.068;2023-07-20T06:44:04;98381.09;;;26.59
40199;BMP280;25906;43.536;26.068;2023-07-20T06:46:50;98381.44;;;26.78
40199;BMP280;25906;43.536;26.068;2023-07-20T06:49:35;98381.25;;;27.23
40199;BMP280;25906;43.536;26.068;2023-07-20T06:52:20;98385.09;;;27.20
40199;BMP280;25906;43.536;26.068;2023-07-20T06:55:06;98386.69;;;27.23
40199;BMP280;25906;43.536;26.068;2023-07-20T06:57:51;98382.44;;;27.45
40199;BMP280;25906;43.536;26.068;2023-07-20T07:00:37;98387.75;;;27.35
40199;BMP280;25906;43.536;26.068;2023-07-20T07:03:22;98390.41;;;27.50
40199;BMP280;25906;43.536;26.068;2023-07-20T07:06:08;98386.63;;;27.70
40199;BMP280;25906;43.536;26.068;2023-07-20T07:08:53;98383.59;;;28.16
40199;BMP280;25906;43.536;26.068;2023-07-20T07:11:38;98374.25;;;28.26
40199;BMP280;25906;43.536;26.068;2023-07-20T07:14:24;98395.03;;;28.39
40199;BMP280;25906;43.536;26.068;2023-07-20T07:17:09;98400.03;;;28.42
40199;BMP280;25906;43.536;26.068;2023-07-20T07:19:54;98401.91;;;28.57
40199;BMP280;25906;43.536;26.068;2023-07-20T07:22:41;98394.47;;;28.74
40199;BMP280;25906;43.536;26.068;2023-07-20T07:25:28;98404.16;;;28.85
40199;BMP280;25906;43.536;26.068;2023-07-20T07:28:15;98391.34;;;28.61
40199;BMP280;25906;43.536;26.068;2023-07-20T07:31:00;98402.25;;;28.78
40199;BMP280;25906;43.536;26.068;2023-07-20T07:33:45;98393.69;;;29.25
40199;BMP280;25906;43.536;26.068;2023-07-20T07:36:31;98398.53;;;29.17
40199;BMP280;25906;43.536;26.068;2023-07-20T07:39:16;98392.94;;;29.51
40199;BMP280;25906;43.536;26.068;2023-07-20T07:42:02;98394.81;;;29.49
40199;BMP280;25906;43.536;26.068;2023-07-20T07:44:47;98404.38;;;29.67
40199;BMP280;25906;43.536;26.068;2023-07-20T07:47:35;98405.84;;;30.14
40199;BMP280;25906;43.536;26.068;2023-07-20T07:50:20;98404.69;;;30.17
40199;BMP280;25906;43.536;26.068;2023-07-20T07:53:07;98406.53;;;30.05
40199;BMP280;25906;43.536;26.068;2023-07-20T07:55:52;98411.19;;;30.21
40199;BMP280;25906;43.536;26.068;2023-07-20T07:58:37;98410.31;;;30.19
40199;BMP280;25906;43.536;26.068;2023-07-20T08:01:23;98408.72;;;30.16
40199;BMP280;25906;43.536;26.068;2023-07-20T08:04:08;98410.69;;;30.06
40199;BMP280;25906;43.536;26.068;2023-07-20T08:06:53;98411.81;;;30.03
40199;BMP280;25906;43.536;26.068;2023-07-20T08:09:39;98413.28;;;30.04
40199;BMP280;25906;43.536;26.068;2023-07-20T08:12:24;98411.41;;;30.06
40199;BMP280;25906;43.536;26.068;2023-07-20T08:15:10;98410.56;;;30.23
40199;BMP280;25906;43.536;26.068;2023-07-20T08:17:56;98419.06;;;30.17
40199;BMP280;25906;43.536;26.068;2023-07-20T08:20:44;98411.63;;;30.37
40199;BMP280;25906;43.536;26.068;2023-07-20T08:23:30;98410.78;;;30.54
40199;BMP280;25906;43.536;26.068;2023-07-20T08:26:15;98404.16;;;30.76
40199;BMP280;25906;43.536;26.068;2023-07-20T08:29:00;98402.84;;;30.86
40199;BMP280;25906;43.536;26.068;2023-07-20T08:31:46;98396.13;;;30.68
40199;BMP280;25906;43.536;26.068;2023-07-20T08:34:31;98404.16;;;30.57
40199;BMP280;25906;43.536;26.068;2023-07-20T08:37:16;98404.44;;;30.70
40199;BMP280;25906;43.536;26.068;2023-07-20T08:40:02;98403.88;;;30.72
40199;BMP280;25906;43.536;26.068;2023-07-20T08:42:54;98406.31;;;30.96
40199;BMP280;25906;43.536;26.068;2023-07-20T08:45:40;98416.19;;;31.20
40199;BMP280;25906;43.536;26.068;2023-07-20T08:48:25;98402.97;;;30.98
40199;BMP280;25906;43.536;26.068;2023-07-20T08:51:12;98404.53;;;31.20
40199;BMP280;25906;43.536;26.068;2023-07-20T08:53:58;98393.13;;;31.33
40199;BMP280;25906;43.536;26.068;2023-07-20T08:56:43;98393.56;;;31.30
40199;BMP280;25906;43.536;26.068;2023-07-20T08:59:30;98393.22;;;31.45
40199;BMP280;25906;43.536;26.068;2023-07-20T09:02:16;98393.56;;;31.70
40199;BMP280;25906;43.536;26.068;2023-07-20T09:05:02;98394.88;;;31.90
40199;BMP280;25906;43.536;26.068;2023-07-20T09:07:48;98396.94;;;32.11
40199;BMP280;25906;43.536;26.068;2023-07-20T09:10:33;98388.19;;;32.02
40199;BMP280;25906;43.536;26.068;2023-07-20T09:13:18;98378.72;;;31.94
40199;BMP280;25906;43.536;26.068;2023-07-20T09:16:04;98391.50;;;32.01
40199;BMP280;25906;43.536;26.068;2023-07-20T09:18:50;98382.47;;;31.37
40199;BMP280;25906;43.536;26.068;2023-07-20T09:21:35;98393.25;;;31.75
40199;BMP280;25906;43.536;26.068;2023-07-20T09:24:21;98389.16;;;31.86
40199;BMP280;25906;43.536;26.068;2023-07-20T09:27:06;98392.03;;;32.09
40199;BMP280;25906;43.536;26.068;2023-07-20T09:29:52;98400.19;;;32.19
40199;BMP280;25906;43.536;26.068;2023-07-20T09:32:43;98392.28;;;32.13
40199;BMP280;25906;43.536;26.068;2023-07-20T09:35:29;98396.41;;;32.02
40199;BMP280;25906;43.536;26.068;2023-07-20T09:38:15;98402.75;;;32.38
40199;BMP280;25906;43.536;26.068;2023-07-20T09:41:00;98396.06;;;32.50
40199;BMP280;25906;43.536;26.068;2023-07-20T09:43:45;98390.97;;;32.14
40199;BMP280;25906;43.536;26.068;2023-07-20T09:46:47;98382.72;;;32.24
40199;BMP280;25906;43.536;26.068;2023-07-20T09:49:33;98382.88;;;32.37
40199;BMP280;25906;43.536;26.068;2023-07-20T09:52:23;98367.56;;;32.23
40199;BMP280;25906;43.536;26.068;2023-07-20T09:55:09;98364.59;;;32.19
40199;BMP280;25906;43.536;26.068;2023-07-20T09:57:56;98362.81;;;32.56
40199;BMP280;25906;43.536;26.068;2023-07-20T10:00:42;98361.44;;;32.78
40199;BMP280;25906;43.536;26.068;2023-07-20T10:03:31;98350.66;;;32.47
40199;BMP280;25906;43.536;26.068;2023-07-20T10:06:19;98341.41;;;32.64
40199;BMP280;25906;43.536;26.068;2023-07-20T10:09:05;98327.38;;;32.92
40199;BMP280;25906;43.536;26.068;2023-07-20T10:11:52;98331.94;;;33.00
40199;BMP280;25906;43.536;26.068;2023-07-20T10:14:46;98330.03;;;33.02
40199;BMP280;25906;43.536;26.068;2023-07-20T10:17:36;98329.78;;;33.10
40199;BMP280;25906;43.536;26.068;2023-07-20T10:20:25;98328.50;;;33.22
40199;BMP280;25906;43.536;26.068;2023-07-20T10:23:11;98317.41;;;32.97
40199;BMP280;25906;43.536;26.068;2023-07-20T10:25:57;98309.50;;;33.03
40199;BMP280;25906;43.536;26.068;2023-07-20T10:28:43;98292.66;;;33.32
40199;BMP280;25906;43.536;26.068;2023-07-20T10:31:28;98292.09;;;32.87
40199;BMP280;25906;43.536;26.068;2023-07-20T10:34:14;98280.28;;;33.31
40199;BMP280;25906;43.536;26.068;2023-07-20T10:37:00;98283.97;;;33.47
40199;BMP280;25906;43.536;26.068;2023-07-20T10:39:45;98272.13;;;33.56
40199;BMP280;25906;43.536;26.068;2023-07-20T10:42:32;98280.16;;;33.40
40199;BMP280;25906;43.536;26.068;2023-07-20T10:45:18;98277.25;;;33.61
40199;BMP280;25906;43.536;26.068;2023-07-20T10:48:12;98273.66;;;33.70
40199;BMP280;25906;43.536;26.068;2023-07-20T10:51:14;98286.69;;;33.58
40199;BMP280;25906;43.536;26.068;2023-07-20T10:54:07;98285.66;;;33.77
40199;BMP280;25906;43.536;26.068;2023-07-20T10:56:52;98279.13;;;33.70
40199;BMP280;25906;43.536;26.068;2023-07-20T10:59:37;98283.56;;;34.01
40199;BMP280;25906;43.536;26.068;2023-07-20T11:02:26;98287.75;;;33.90
40199;BMP280;25906;43.536;26.068;2023-07-20T11:08:16;98282.50;;;33.94
40199;BMP280;25906;43.536;26.068;2023-07-20T11:11:24;98272.41;;;33.85
40199;BMP280;25906;43.536;26.068;2023-07-20T11:14:10;98270.81;;;33.94
40199;BMP280;25906;43.536;26.068;2023-07-20T11:16:56;98271.66;;;33.84
40199;BMP280;25906;43.536;26.068;2023-07-20T11:19:55;98271.13;;;33.63
40199;BMP280;25906;43.536;26.068;2023-07-20T11:22:41;98264.69;;;33.70
40199;BMP280;25906;43.536;26.068;2023-07-20T11:25:35;98274.00;;;34.02
40199;BMP280;25906;43.536;26.068;2023-07-20T11:28:20;98275.47;;;33.91
40199;BMP280;25906;43.536;26.068;2023-07-20T11:31:06;98277.78;;;33.83
40199;BMP280;25906;43.536;26.068;2023-07-20T11:33:51;98271.09;;;33.86
40199;BMP280;25906;43.536;26.068;2023-07-20T11:36:36;98266.34;;;33.75
40199;BMP280;25906;43.536;26.068;2023-07-20T11:39:22;98266.78;;;33.83
40199;BMP280;25906;43.536;26.068;2023-07-20T11:42:07;98262.44;;;33.92
40199;BMP280;25906;43.536;26.068;2023-07-20T11:44:53;98262.16;;;33.99
40199;BMP280;25906;43.536;26.068;2023-07-20T11:47:41;98249.44;;;34.17
40199;BMP280;25906;43.536;26.068;2023-07-20T11:50:29;98259.13;;;34.32
40199;BMP280;25906;43.536;26.068;2023-07-20T11:53:15;98256.84;;;34.15
40199;BMP280;25906;43.536;26.068;2023-07-20T11:56:01;98244.09;;;33.82
40199;BMP280;25906;43.536;26.068;2023-07-20T11:58:46;98248.34;;;34.36
40199;BMP280;25906;43.536;26.068;2023-07-20T12:01:31;98224.94;;;34.35
40199;BMP280;25906;43.536;26.068;2023-07-20T12:04:17;98219.66;;;33.75
40199;BMP280;25906;43.536;26.068;2023-07-20T12:07:02;98222.84;;;33.83
40199;BMP280;25906;43.536;26.068;2023-07-20T12:12:49;98212.16;;;34.01
40199;BMP280;25906;43.536;26.068;2023-07-20T12:15:34;98207.22;;;33.99
40199;BMP280;25906;43.536;26.068;2023-07-20T12:18:22;98211.34;;;33.61
40199;BMP280;25906;43.536;26.068;2023-07-20T12:21:07;98199.25;;;33.78
40199;BMP280;25906;43.536;26.068;2023-07-20T12:23:55;98191.13;;;34.19
40199;BMP280;25906;43.536;26.068;2023-07-20T12:26:41;98204.06;;;34.16
40199;BMP280;25906;43.536;26.068;2023-07-20T12:29:28;98193.06;;;34.16
40199;BMP280;25906;43.536;26.068;2023-07-20T12:32:13;98192.94;;;34.14
40199;BMP280;25906;43.536;26.068;2023-07-20T12:34:58;98186.56;;;34.23
40199;BMP280;25906;43.536;26.068;2023-07-20T12:37:45;98191.00;;;34.17
40199;BMP280;25906;43.536;26.068;2023-07-20T12:40:34;98199.16;;;33.89
40199;BMP280;25906;43.536;26.068;2023-07-20T12:43:19;98192.75;;;33.60
40199;BMP280;25906;43.536;26.068;2023-07-20T12:46:05;98197.38;;;33.69
40199;BMP280;25906;43.536;26.068;2023-07-20T12:48:50;98188.44;;;33.94
40199;BMP280;25906;43.536;26.068;2023-07-20T12:51:36;98180.78;;;34.31
40199;BMP280;25906;43.536;26.068;2023-07-20T12:54:21;98183.13;;;34.50
40199;BMP280;25906;43.536;26.068;2023-07-20T12:57:06;98176.72;;;34.45
40199;BMP280;25906;43.536;26.068;2023-07-20T12:59:51;98177.44;;;34.46
40199;BMP280;25906;43.536;26.068;2023-07-20T13:02:37;98172.28;;;34.27
40199;BMP280;25906;43.536;26.068;2023-07-20T13:05:23;98164.81;;;33.88
40199;BMP280;25906;43.536;26.068;2023-07-20T13:08:08;98170.50;;;33.42
40199;BMP280;25906;43.536;26.068;2023-07-20T13:10:54;98172.50;;;33.05
40199;BMP280;25906;43.536;26.068;2023-07-20T13:13:39;98174.56;;;33.05
40199;BMP280;25906;43.536;26.068;2023-07-20T13:16:24;98180.72;;;33.17
40199;BMP280;25906;43.536;26.068;2023-07-20T13:19:10;98170.22;;;33.50
40199;BMP280;25906;43.536;26.068;2023-07-20T13:21:55;98168.03;;;33.35
40199;BMP280;25906;43.536;26.068;2023-07-20T13:24:41;98165.94;;;33.72
40199;BMP280;25906;43.536;26.068;2023-07-20T13:27:26;98167.53;;;33.38
40199;BMP280;25906;43.536;26.068;2023-07-20T13:30:11;98166.06;;;33.12
40199;BMP280;25906;43.536;26.068;2023-07-20T13:33:01;98173.81;;;33.52
40199;BMP280;25906;43.536;26.068;2023-07-20T13:35:46;98159.53;;;33.42
40199;BMP280;25906;43.536;26.068;2023-07-20T13:38:32;98161.19;;;33.72
40199;BMP280;25906;43.536;26.068;2023-07-20T13:41:17;98152.03;;;33.68
40199;BMP280;25906;43.536;26.068;2023-07-20T13:44:02;98155.31;;;33.78
40199;BMP280;25906;43.536;26.068;2023-07-20T13:46:48;98158.09;;;33.66
40199;BMP280;25906;43.536;26.068;2023-07-20T13:49:33;98151.31;;;33.67
40199;BMP280;25906;43.536;26.068;2023-07-20T13:52:19;98147.28;;;33.57
40199;BMP280;25906;43.536;26.068;2023-07-20T13:55:04;98146.91;;;33.62
40199;BMP280;25906;43.536;26.068;2023-07-20T13:57:49;98146.59;;;33.95
40199;BMP280;25906;43.536;26.068;2023-07-20T14:00:41;98143.63;;;33.77
40199;BMP280;25906;43.536;26.068;2023-07-20T14:03:29;98142.75;;;33.61
40199;BMP280;25906;43.536;26.068;2023-07-20T14:06:15;98152.84;;;33.45
40199;BMP280;25906;43.536;26.068;2023-07-20T14:09:00;98150.56;;;33.53
40199;BMP280;25906;43.536;26.068;2023-07-20T14:11:46;98156.28;;;33.71
40199;BMP280;25906;43.536;26.068;2023-07-20T14:14:31;98148.81;;;33.85
40199;BMP280;25906;43.536;26.068;2023-07-20T14:17:17;98146.69;;;33.83
40199;BMP280;25906;43.536;26.068;2023-07-20T14:20:03;98156.38;;;33.98
40199;BMP280;25906;43.536;26.068;2023-07-20T14:22:51;98147.81;;;33.78
40199;BMP280;25906;43.536;26.068;2023-07-20T14:25:36;98157.53;;;33.81
40199;BMP280;25906;43.536;26.068;2023-07-20T14:28:21;98152.75;;;33.82
40199;BMP280;25906;43.536;26.068;2023-07-20T14:31:07;98160.34;;;33.45
40199;BMP280;25906;43.536;26.068;2023-07-20T14:33:52;98157.38;;;33.41
40199;BMP280;25906;43.536;26.068;2023-07-20T14:36:38;98157.28;;;33.39
40199;BMP280;25906;43.536;26.068;2023-07-20T14:39:23;98152.13;;;33.45
40199;BMP280;25906;43.536;26.068;2023-07-20T14:42:09;98149.84;;;33.53
40199;BMP280;25906;43.536;26.068;2023-07-20T14:44:55;98151.13;;;33.52
40199;BMP280;25906;43.536;26.068;2023-07-20T14:47:40;98157.81;;;33.49
40199;BMP280;25906;43.536;26.068;2023-07-20T14:50:25;98150.00;;;33.32
40199;BMP280;25906;43.536;26.068;2023-07-20T14:53:11;98155.78;;;33.13
40199;BMP280;25906;43.536;26.068;2023-07-20T14:56:00;98154.16;;;32.84
40199;BMP280;25906;43.536;26.068;2023-07-20T14:58:45;98157.78;;;32.75
40199;BMP280;25906;43.536;26.068;2023-07-20T15:01:31;98154.69;;;32.81
40199;BMP280;25906;43.536;26.068;2023-07-20T15:04:16;98158.50;;;32.64
40199;BMP280;25906;43.536;26.068;2023-07-20T15:07:02;98167.78;;;32.82
40199;BMP280;25906;43.536;26.068;2023-07-20T15:09:47;98170.75;;;32.75
40199;BMP280;25906;43.536;26.068;2023-07-20T15:12:33;98165.28;;;32.63
40199;BMP280;25906;43.536;26.068;2023-07-20T15:15:18;98158.94;;;32.84
40199;BMP280;25906;43.536;26.068;2023-07-20T15:18:03;98161.69;;;32.72
40199;BMP280;25906;43.536;26.068;2023-07-20T15:20:50;98159.66;;;32.84
40199;BMP280;25906;43.536;26.068;2023-07-20T15:23:38;98170.16;;;32.76
40199;BMP280;25906;43.536;26.068;2023-07-20T15:26:24;98167.06;;;32.70
40199;BMP280;25906;43.536;26.068;2023-07-20T15:29:10;98174.34;;;32.54
40199;BMP280;25906;43.536;26.068;2023-07-20T15:31:55;98180.66;;;32.57
40199;BMP280;25906;43.536;26.068;2023-07-20T15:34:40;98185.53;;;32.58
40199;BMP280;25906;43.536;26.068;2023-07-20T15:37:26;98184.19;;;32.48
40199;BMP280;25906;43.536;26.068;2023-07-20T15:40:11;98181.22;;;32.32
40199;BMP280;25906;43.536;26.068;2023-07-20T15:42:57;98182.78;;;32.35
40199;BMP280;25906;43.536;26.068;2023-07-20T15:45:47;98188.94;;;32.24
40199;BMP280;25906;43.536;26.068;2023-07-20T15:48:35;98196.34;;;32.33
40199;BMP280;25906;43.536;26.068;2023-07-20T15:51:21;98187.72;;;32.04
40199;BMP280;25906;43.536;26.068;2023-07-20T15:54:07;98199.16;;;32.12